Time;durP1;ratioP1;P1;durP2;ratioP2;P2;SDS_P1;SDS_P2;PMS_P1;PMS_P2;Temp;Humidity;BMP_temperature;BMP_pressure;BME280_temperature;BME280_humidity;BME280_pressure;Samples;Min_cycle;Max_cycle;Signal;HPM_P1;HPM_P2
2023/06/04 00:01:05;;;;;;;79.30;2.47;;;21.20;28.10;;;;;;5010919;28;20212;-72
2023/06/04 00:03:32;;;;;;;79.27;2.73;;;21.10;28.30;;;;;;5001697;28;20211;-72
2023/06/04 00:05:57;;;;;;;80.13;2.67;;;21.30;27.60;;;;;;4992453;28;20194;-72
2023/06/04 00:08:23;;;;;;;80.57;2.97;;;21.30;28.50;;;;;;4992593;28;20411;-72
2023/06/04 00:10:49;;;;;;;79.40;2.77;;;21.00;29.80;;;;;;4992715;28;20588;-72
2023/06/04 00:13:15;;;;;;;78.90;2.50;;;20.90;29.70;;;;;;4995241;28;20253;-72
2023/06/04 00:15:41;;;;;;;78.67;2.43;;;20.80;29.70;;;;;;4996467;28;20677;-73
2023/06/04 00:18:07;;;;;;;79.03;2.57;;;20.80;28.60;;;;;;4996429;28;20409;-72
2023/06/04 00:20:32;;;;;;;81.60;2.73;;;20.70;29.70;;;;;;4996391;28;20412;-72
2023/06/04 00:22:58;;;;;;;79.47;2.50;;;20.70;29.90;;;;;;4995873;28;20536;-73
2023/06/04 00:25:24;;;;;;;79.60;2.83;;;20.80;29.80;;;;;;4996380;28;20190;-73
2023/06/04 00:27:49;;;;;;;79.10;2.50;;;20.70;30.30;;;;;;4996519;28;20198;-72
2023/06/04 00:30:15;;;;;;;80.40;2.80;;;20.60;30.30;;;;;;4996037;28;20197;-71
2023/06/04 00:32:41;;;;;;;79.17;2.30;;;20.50;31.30;;;;;;4994195;28;20221;-73
2023/06/04 00:35:07;;;;;;;80.60;2.83;;;20.30;30.50;;;;;;4995938;28;20193;-73
2023/06/04 00:37:32;;;;;;;79.87;2.80;;;20.20;31.40;;;;;;4996266;28;20174;-72
2023/06/04 00:39:59;;;;;;;79.60;2.60;;;20.10;30.70;;;;;;4996489;28;20415;-72
2023/06/04 00:42:25;;;;;;;79.77;2.50;;;20.20;30.80;;;;;;4996540;28;20184;-72
2023/06/04 00:44:51;;;;;;;80.10;2.50;;;20.10;31.60;;;;;;4995751;28;20838;-72
2023/06/04 00:47:18;;;;;;;80.07;2.67;;;20.10;30.50;;;;;;4994948;28;20170;-72
2023/06/04 00:49:44;;;;;;;82.00;3.17;;;20.00;31.90;;;;;;4996364;28;20779;-72
2023/06/04 00:52:13;;;;;;;79.70;2.33;;;19.90;32.20;;;;;;4996361;28;20451;-72
2023/06/04 00:54:38;;;;;;;81.07;2.50;;;20.00;30.90;;;;;;4995526;28;20502;-72
2023/06/04 00:57:05;;;;;;;80.77;2.90;;;19.80;31.80;;;;;;4996508;28;20843;-71
2023/06/04 00:59:33;;;;;;;79.90;2.47;;;19.90;31.60;;;;;;4996437;28;20170;-72
2023/06/04 01:02:12;;;;;;;80.33;2.77;;;19.80;33.50;;;;;;4996223;28;20420;-72
2023/06/04 01:04:59;;;;;;;79.87;2.30;;;19.80;31.90;;;;;;4995393;28;20410;-72
2023/06/04 01:07:30;;;;;;;79.97;2.30;;;19.70;31.70;;;;;;4995948;28;20411;-73
2023/06/04 01:09:56;;;;;;;80.40;2.70;;;19.60;32.60;;;;;;4995846;28;20462;-73
2023/06/04 01:12:22;;;;;;;82.10;3.50;;;19.60;32.60;;;;;;4995760;28;20454;-72
2023/06/04 01:14:48;;;;;;;80.00;2.37;;;19.60;31.90;;;;;;4993642;28;20440;-72
2023/06/04 01:17:23;;;;;;;80.50;2.70;;;19.50;32.80;;;;;;4995398;28;20516;-73
2023/06/04 01:20:04;;;;;;;80.23;2.43;;;19.60;32.20;;;;;;4995796;28;20673;-72
2023/06/04 01:22:31;;;;;;;80.77;2.67;;;19.30;32.90;;;;;;4994831;28;20391;-67
2023/06/04 01:25:02;;;;;;;80.57;2.50;;;19.30;33.20;;;;;;4995283;28;20465;-72
2023/06/04 01:27:29;;;;;;;80.47;2.67;;;19.40;33.10;;;;;;4995480;28;20403;-72
2023/06/04 01:29:56;;;;;;;80.80;2.80;;;19.40;33.20;;;;;;4995609;28;20408;-72
2023/06/04 01:32:23;;;;;;;80.17;2.13;;;19.50;32.80;;;;;;4995431;28;20454;-72
2023/06/04 01:34:49;;;;;;;80.87;2.50;;;19.50;33.30;;;;;;4994764;28;20905;-72
2023/06/04 01:37:16;;;;;;;80.73;2.73;;;19.40;33.70;;;;;;4995117;28;20450;-70
2023/06/04 01:39:42;;;;;;;80.57;2.47;;;19.20;34.90;;;;;;4994943;28;20701;-72
2023/06/04 01:42:08;;;;;;;81.67;2.97;;;19.50;31.80;;;;;;4995158;28;20402;-72
2023/06/04 01:44:34;;;;;;;80.53;2.30;;;19.50;32.80;;;;;;4994384;28;20414;-72
2023/06/04 01:47:00;;;;;;;81.13;2.67;;;19.30;33.50;;;;;;4995181;28;20486;-72
2023/06/04 01:49:25;;;;;;;81.60;3.00;;;19.30;34.10;;;;;;4995094;28;20896;-72
2023/06/04 01:51:51;;;;;;;80.80;2.40;;;19.20;34.20;;;;;;4994528;28;20199;-72
2023/06/04 01:54:17;;;;;;;81.60;3.00;;;19.30;32.90;;;;;;4992984;28;20678;-72
2023/06/04 01:56:43;;;;;;;82.37;3.07;;;19.30;32.60;;;;;;4995164;28;20222;-73
2023/06/04 01:59:11;;;;;;;81.80;2.90;;;19.30;33.60;;;;;;4994969;28;20183;-73
2023/06/04 02:01:38;;;;;;;82.03;2.83;;;19.10;33.10;;;;;;4994863;28;20594;-73
2023/06/04 02:04:03;;;;;;;81.00;2.07;;;19.00;34.00;;;;;;4994008;28;20426;-70
2023/06/04 02:06:29;;;;;;;83.13;2.73;;;19.20;34.60;;;;;;4994508;28;20435;-72
2023/06/04 02:08:55;;;;;;;82.17;2.60;;;19.10;34.40;;;;;;4994623;28;20177;-73
2023/06/04 02:11:21;;;;;;;83.07;3.20;;;19.10;34.00;;;;;;4994678;28;20449;-72
2023/06/04 02:13:47;;;;;;;81.27;2.17;;;19.10;33.60;;;;;;4993638;28;20475;-72
2023/06/04 02:16:13;;;;;;;81.77;2.63;;;18.90;33.90;;;;;;4994250;28;20277;-72
2023/06/04 02:18:39;;;;;;;81.80;2.57;;;18.80;34.20;;;;;;4994149;28;20492;-72
2023/06/04 02:21:05;;;;;;;82.37;3.03;;;18.80;34.30;;;;;;4994386;28;20170;-72
2023/06/04 02:23:30;;;;;;;83.60;3.00;;;18.90;33.80;;;;;;4993713;28;20763;-72
2023/06/04 02:25:56;;;;;;;82.07;2.30;;;18.70;34.30;;;;;;4992737;28;20226;-72
2023/06/04 02:28:22;;;;;;;82.07;2.40;;;18.80;34.90;;;;;;4993861;28;20174;-72
2023/06/04 02:30:47;;;;;;;82.77;2.80;;;18.60;35.50;;;;;;4992694;28;20190;-73
2023/06/04 02:33:14;;;;;;;82.50;3.00;;;18.80;34.00;;;;;;4994362;28;20181;-73
2023/06/04 02:35:40;;;;;;;88.50;3.80;;;18.80;34.50;;;;;;4993762;28;20213;-73
2023/06/04 02:38:07;;;;;;;81.87;2.37;;;18.80;33.30;;;;;;4994513;28;20462;-70
2023/06/04 02:40:32;;;;;;;82.70;2.47;;;18.80;34.60;;;;;;4994105;28;20464;-72
2023/06/04 02:42:58;;;;;;;81.90;2.33;;;18.70;34.20;;;;;;4993692;28;20822;-72
2023/06/04 02:45:24;;;;;;;81.77;2.20;;;18.80;34.90;;;;;;4993837;28;20290;-72
2023/06/04 02:47:50;;;;;;;83.13;2.80;;;18.70;34.40;;;;;;4994070;28;20207;-72
2023/06/04 02:50:16;;;;;;;84.07;2.60;;;18.80;34.10;;;;;;4994022;28;20409;-72
2023/06/04 02:52:42;;;;;;;83.00;3.00;;;18.90;32.30;;;;;;4993252;28;20202;-72
2023/06/04 02:55:08;;;;;;;82.30;2.80;;;18.90;33.70;;;;;;4993961;28;20439;-72
2023/06/04 02:57:35;;;;;;;82.90;2.90;;;18.80;33.10;;;;;;4993674;28;20410;-73
2023/06/04 03:00:02;;;;;;;82.97;2.33;;;18.60;34.10;;;;;;4994099;28;20535;-72
2023/06/04 03:02:28;;;;;;;83.53;3.03;;;18.40;34.50;;;;;;4993642;28;20912;-72
2023/06/04 03:04:54;;;;;;;82.30;2.40;;;18.30;35.30;;;;;;4992965;28;20438;-72
2023/06/04 03:07:22;;;;;;;83.00;3.00;;;18.20;35.80;;;;;;4994001;28;20525;-72
2023/06/04 03:09:49;;;;;;;84.10;2.63;;;18.20;35.80;;;;;;4993344;28;20425;-72
2023/06/04 03:12:15;;;;;;;82.23;2.33;;;18.10;36.00;;;;;;4993321;28;20452;-71
2023/06/04 03:14:40;;;;;;;82.30;2.50;;;18.00;35.80;;;;;;4992697;28;20727;-72
2023/06/04 03:17:12;;;;;;;82.50;2.43;;;18.10;35.70;;;;;;4993323;28;20177;-72
2023/06/04 03:19:40;;;;;;;83.50;2.73;;;18.20;35.90;;;;;;4993752;28;20169;-72
2023/06/04 03:22:06;;;;;;;93.87;3.50;;;18.20;36.20;;;;;;4992958;28;20413;-71
2023/06/04 03:24:37;;;;;;;82.70;2.80;;;18.10;35.60;;;;;;4993107;28;20416;-72
2023/06/04 03:27:04;;;;;;;82.97;2.60;;;18.00;36.10;;;;;;4993477;28;20909;-72
2023/06/04 03:29:30;;;;;;;82.47;2.50;;;18.20;35.70;;;;;;4992879;28;20411;-68
2023/06/04 03:31:56;;;;;;;83.90;3.10;;;18.00;36.50;;;;;;4992246;28;20445;-69
2023/06/04 03:34:24;;;;;;;82.43;2.30;;;17.80;37.00;;;;;;4991823;28;20476;-69
2023/06/04 03:36:54;;;;;;;83.60;2.87;;;17.70;36.80;;;;;;4992459;28;20406;-69
2023/06/04 03:39:20;;;;;;;82.73;2.40;;;17.70;37.50;;;;;;4992602;28;20843;-70
2023/06/04 03:41:45;;;;;;;84.27;3.40;;;17.60;36.90;;;;;;4992207;28;20412;-68
2023/06/04 03:44:18;;;;;;;84.87;3.07;;;17.50;36.80;;;;;;4992106;28;20408;-69
2023/06/04 03:46:44;;;;;;;82.73;2.60;;;17.60;37.30;;;;;;4994508;28;20267;-68
2023/06/04 03:49:11;;;;;;;82.57;2.33;;;17.50;38.00;;;;;;4996665;28;20459;-71
2023/06/04 03:51:38;;;;;;;82.77;2.43;;;17.50;36.80;;;;;;4996424;28;20462;-69
2023/06/04 03:54:04;;;;;;;85.00;2.80;;;17.50;36.80;;;;;;4995927;28;20414;-68
2023/06/04 03:56:30;;;;;;;85.37;3.00;;;17.50;37.10;;;;;;4996389;28;20960;-68
2023/06/04 03:58:56;;;;;;;83.30;2.93;;;17.50;37.10;;;;;;4996475;28;20423;-68
2023/06/04 04:01:23;;;;;;;82.80;2.50;;;17.60;36.30;;;;;;4996109;28;20412;-68
2023/06/04 04:03:49;;;;;;;82.87;2.50;;;17.50;37.00;;;;;;4995602;28;20514;-69
2023/06/04 04:06:16;;;;;;;83.30;2.60;;;17.50;36.60;;;;;;4996220;28;20426;-68
2023/06/04 04:08:44;;;;;;;83.10;2.67;;;17.50;37.60;;;;;;4996190;28;20409;-69
2023/06/04 04:11:14;;;;;;;84.00;2.60;;;17.50;36.30;;;;;;4996150;28;20445;-68
2023/06/04 04:13:40;;;;;;;82.80;2.40;;;17.50;36.70;;;;;;4995556;28;20542;-69
2023/06/04 04:16:06;;;;;;;82.67;2.40;;;17.50;37.60;;;;;;4996382;28;20507;-68
2023/06/04 04:18:35;;;;;;;82.67;2.43;;;17.60;37.00;;;;;;4995909;28;20171;-68
2023/06/04 04:21:02;;;;;;;83.10;2.40;;;17.50;36.90;;;;;;4996045;28;20421;-68
2023/06/04 04:23:29;;;;;;;83.27;2.70;;;17.50;37.20;;;;;;4995270;28;20511;-69
2023/06/04 04:25:56;;;;;;;82.90;2.73;;;17.60;37.30;;;;;;4995758;28;20420;-68
2023/06/04 04:28:22;;;;;;;83.70;2.60;;;17.80;37.00;;;;;;4995745;28;20439;-69
2023/06/04 04:30:48;;;;;;;82.57;2.23;;;17.80;36.50;;;;;;4994543;28;20534;-69
2023/06/04 04:33:17;;;;;;;84.10;2.90;;;17.80;36.70;;;;;;4995150;28;20422;-69
2023/06/04 04:35:44;;;;;;;83.13;2.40;;;18.00;36.50;;;;;;4995698;28;20506;-69
2023/06/04 04:38:10;;;;;;;83.13;2.50;;;18.10;37.00;;;;;;4995472;28;20404;-69
2023/06/04 04:40:36;;;;;;;116.60;2.80;;;18.20;36.80;;;;;;4995708;28;20409;-69
2023/06/04 04:43:02;;;;;;;82.97;2.40;;;18.30;36.40;;;;;;4994816;28;20418;-68
2023/06/04 04:45:28;;;;;;;82.67;2.53;;;18.40;35.50;;;;;;4995455;28;20453;-69
2023/06/04 04:47:53;;;;;;;82.60;2.50;;;18.50;34.60;;;;;;4995437;28;20526;-71
2023/06/04 04:50:19;;;;;;;82.63;2.57;;;18.50;35.80;;;;;;4995622;28;20186;-69
2023/06/04 04:52:45;;;;;;;83.63;2.53;;;18.50;34.00;;;;;;4994771;28;20579;-69
2023/06/04 04:55:11;;;;;;;82.17;2.10;;;18.60;34.50;;;;;;4995884;28;20198;-69
2023/06/04 04:57:38;;;;;;;82.57;2.17;;;18.60;34.40;;;;;;4994391;28;20634;-69
2023/06/04 05:00:06;;;;;;;83.07;2.67;;;18.70;34.70;;;;;;4995154;28;20818;-71
2023/06/04 05:02:31;;;;;;;83.97;2.97;;;18.70;33.30;;;;;;4995051;28;20782;-69
2023/06/04 05:04:57;;;;;;;82.70;2.43;;;18.60;33.70;;;;;;4994979;28;20448;-69
2023/06/04 05:07:24;;;;;;;83.47;2.90;;;18.70;34.10;;;;;;4995252;28;20583;-69
2023/06/04 05:09:50;;;;;;;82.83;2.67;;;18.80;35.10;;;;;;4994900;28;20193;-72
2023/06/04 05:12:16;;;;;;;82.77;2.53;;;19.00;34.80;;;;;;4994978;28;20460;-69
2023/06/04 05:14:41;;;;;;;84.10;2.47;;;19.00;34.30;;;;;;4994332;28;20195;-69
2023/06/04 05:17:10;;;;;;;83.80;3.03;;;19.00;34.90;;;;;;4995090;28;20168;-69
2023/06/04 05:19:37;;;;;;;83.17;2.60;;;19.10;34.30;;;;;;4994896;28;20178;-72
2023/06/04 05:22:03;;;;;;;83.10;2.70;;;19.40;32.90;;;;;;4994893;28;20932;-70
2023/06/04 05:24:29;;;;;;;82.30;2.30;;;19.40;34.00;;;;;;4994131;28;20418;-69
2023/06/04 05:26:56;;;;;;;82.33;2.33;;;19.60;32.10;;;;;;4994768;28;20417;-70
2023/06/04 05:29:22;;;;;;;84.77;3.00;;;19.50;32.80;;;;;;4994691;28;20257;-69
2023/06/04 05:31:48;;;;;;;82.77;2.53;;;19.20;31.40;;;;;;4994699;28;20437;-68
2023/06/04 05:34:16;;;;;;;82.60;2.50;;;18.90;32.00;;;;;;4993951;28;20422;-69
2023/06/04 05:36:42;;;;;;;84.20;2.70;;;18.60;34.30;;;;;;4994399;28;20677;-69
2023/06/04 05:39:09;;;;;;;83.47;2.97;;;18.80;32.60;;;;;;4994538;28;20826;-69
2023/06/04 05:41:35;;;;;;;83.07;2.97;;;18.60;33.80;;;;;;4994736;28;20719;-68
2023/06/04 05:44:01;;;;;;;83.50;3.10;;;18.50;33.20;;;;;;4994055;28;20427;-69
2023/06/04 05:46:27;;;;;;;82.67;2.90;;;18.20;35.30;;;;;;5027682;23;20627;-70
2023/06/04 05:48:53;;;;;;;83.27;2.80;;;18.30;35.10;;;;;;5046133;28;20500;-70
2023/06/04 05:51:19;;;;;;;84.37;2.83;;;18.30;34.70;;;;;;5048978;28;20256;-71
2023/06/04 05:53:46;;;;;;;82.90;2.87;;;18.10;33.80;;;;;;5052728;28;20417;-71
2023/06/04 05:56:11;;;;;;;87.00;3.50;;;18.10;35.00;;;;;;5053302;28;20421;-71
2023/06/04 05:58:37;;;;;;;82.77;2.83;;;18.60;33.80;;;;;;5053539;28;20411;-72
2023/06/04 06:01:03;;;;;;;84.97;3.40;;;18.70;32.50;;;;;;5053306;28;20174;-72
2023/06/04 06:03:29;;;;;;;82.40;2.60;;;18.90;32.20;;;;;;5052807;28;20231;-72
2023/06/04 06:05:56;;;;;;;82.50;2.43;;;18.80;32.30;;;;;;5053170;28;20929;-72
2023/06/04 06:08:22;;;;;;;82.03;2.30;;;18.90;32.10;;;;;;5052875;28;20168;-72
2023/06/04 06:10:48;;;;;;;83.87;3.40;;;18.60;31.90;;;;;;5053108;28;20413;-72
2023/06/04 06:13:13;;;;;;;81.97;2.30;;;18.70;31.10;;;;;;5052596;28;20171;-72
2023/06/04 06:15:39;;;;;;;84.70;3.03;;;18.70;31.20;;;;;;5052947;28;20201;-71
2023/06/04 06:18:05;;;;;;;82.90;3.00;;;19.00;30.70;;;;;;5053071;28;20700;-71
2023/06/04 06:20:32;;;;;;;82.00;2.47;;;19.10;30.40;;;;;;5052853;28;20165;-71
2023/06/04 06:22:58;;;;;;;82.20;2.50;;;19.00;31.80;;;;;;5052096;28;20173;-71
2023/06/04 06:25:23;;;;;;;81.77;2.27;;;19.40;29.60;;;;;;5052849;28;20430;-71
2023/06/04 06:27:51;;;;;;;82.17;2.70;;;18.90;30.30;;;;;;5052715;28;20414;-71
2023/06/04 06:30:16;;;;;;;82.13;2.57;;;19.00;31.10;;;;;;5052526;28;20461;-71
2023/06/04 06:32:42;;;;;;;81.97;2.60;;;18.90;30.60;;;;;;5051973;28;20450;-72
2023/06/04 06:35:08;;;;;;;82.90;2.63;;;18.60;31.00;;;;;;5052813;28;20199;-72
2023/06/04 06:37:34;;;;;;;81.70;2.30;;;19.10;31.10;;;;;;5052495;28;20202;-71
2023/06/04 06:39:59;;;;;;;81.67;2.30;;;19.20;30.30;;;;;;5052767;28;20406;-72
2023/06/04 06:42:25;;;;;;;82.10;2.80;;;19.30;31.20;;;;;;5052352;28;20538;-72
2023/06/04 06:44:50;;;;;;;81.53;2.37;;;20.00;30.80;;;;;;5051693;28;20673;-72
2023/06/04 06:47:16;;;;;;;81.70;2.10;;;20.10;28.30;;;;;;5052424;28;20191;-72
2023/06/04 06:49:42;;;;;;;82.63;2.70;;;20.30;28.50;;;;;;5052204;28;20169;-72
2023/06/04 06:52:09;;;;;;;81.70;2.30;;;20.60;27.40;;;;;;5052194;28;20188;-72
2023/06/04 06:54:35;;;;;;;81.60;2.20;;;20.40;26.80;;;;;;5051765;28;20407;-72
2023/06/04 06:57:02;;;;;;;81.57;2.30;;;20.20;28.10;;;;;;5052273;28;20429;-72
2023/06/04 06:59:28;;;;;;;81.63;2.50;;;20.40;28.00;;;;;;5052299;28;20230;-71
2023/06/04 07:01:53;;;;;;;82.00;2.80;;;20.30;28.60;;;;;;5052192;28;20410;-71
2023/06/04 07:04:20;;;;;;;81.97;2.50;;;20.80;28.80;;;;;;5051467;28;20205;-71
2023/06/04 07:06:46;;;;;;;99.07;3.07;;;21.20;28.10;;;;;;5052049;28;20200;-71
2023/06/04 07:09:12;;;;;;;81.67;2.60;;;21.30;26.90;;;;;;5051100;28;20423;-71
2023/06/04 07:11:37;;;;;;;82.20;2.93;;;20.70;27.70;;;;;;5050100;28;20228;-71
2023/06/04 07:14:03;;;;;;;81.10;2.27;;;20.90;28.20;;;;;;5051387;28;20409;-71
2023/06/04 07:16:29;;;;;;;81.83;2.97;;;21.10;27.50;;;;;;5052190;28;20192;-71
2023/06/04 07:18:54;;;;;;;81.40;2.60;;;21.20;27.70;;;;;;5052036;28;20182;-71
2023/06/04 07:21:22;;;;;;;82.70;2.77;;;21.40;27.40;;;;;;5051453;28;20434;-71
2023/06/04 07:23:49;;;;;;;83.37;3.00;;;21.80;27.30;;;;;;5050942;28;20173;-71
2023/06/04 07:26:15;;;;;;;81.30;2.50;;;21.90;25.80;;;;;;5051824;28;20424;-71
2023/06/04 07:28:41;;;;;;;80.93;2.50;;;20.90;27.50;;;;;;5051691;28;20420;-71
2023/06/04 07:31:07;;;;;;;80.97;2.63;;;20.20;28.70;;;;;;5051744;28;20447;-71
2023/06/04 07:33:33;;;;;;;80.87;2.33;;;20.80;28.00;;;;;;5051221;28;20961;-71
2023/06/04 07:35:59;;;;;;;81.70;2.83;;;21.10;27.70;;;;;;5050120;28;20243;-71
2023/06/04 07:38:25;;;;;;;80.50;2.20;;;21.40;27.00;;;;;;5051709;28;20177;-71
2023/06/04 07:40:51;;;;;;;80.40;2.10;;;21.50;27.70;;;;;;5051742;28;20984;-71
2023/06/04 07:43:17;;;;;;;81.17;2.53;;;21.70;26.30;;;;;;5050805;28;20412;-71
2023/06/04 07:45:42;;;;;;;80.50;2.30;;;21.60;26.30;;;;;;5051651;28;20687;-71
2023/06/04 07:48:11;;;;;;;80.40;2.13;;;21.90;26.60;;;;;;5051609;28;20267;-71
2023/06/04 07:50:37;;;;;;;81.00;2.50;;;22.10;26.30;;;;;;5051659;28;20174;-71
2023/06/04 07:53:03;;;;;;;80.83;2.40;;;22.30;25.60;;;;;;5051168;28;20446;-71
2023/06/04 07:55:28;;;;;;;80.50;2.27;;;22.30;27.00;;;;;;5051412;28;20433;-71
2023/06/04 07:57:54;;;;;;;80.43;2.20;;;22.40;25.70;;;;;;5051378;28;20162;-71
2023/06/04 08:00:20;;;;;;;80.37;2.27;;;22.30;26.10;;;;;;5051537;28;20201;-71
2023/06/04 08:02:45;;;;;;;80.67;2.40;;;22.40;26.00;;;;;;5050893;28;20206;-71
2023/06/04 08:05:13;;;;;;;80.17;2.33;;;22.60;25.40;;;;;;5051431;28;20200;-71
2023/06/04 08:07:40;;;;;;;79.87;2.30;;;22.70;25.10;;;;;;5051457;28;20588;-71
2023/06/04 08:10:06;;;;;;;79.87;2.20;;;22.80;24.80;;;;;;5051543;28;20956;-71
2023/06/04 08:12:32;;;;;;;80.07;2.10;;;23.00;25.00;;;;;;5050728;28;20442;-72
2023/06/04 08:14:57;;;;;;;80.20;2.67;;;22.60;24.90;;;;;;5051216;28;20484;-72
2023/06/04 08:17:23;;;;;;;79.80;2.30;;;22.80;25.00;;;;;;5051204;28;20175;-72
2023/06/04 08:19:49;;;;;;;79.67;2.10;;;22.80;24.80;;;;;;5051400;28;20175;-71
2023/06/04 08:22:15;;;;;;;80.37;2.40;;;22.80;24.60;;;;;;5051094;28;20468;-71
2023/06/04 08:24:40;;;;;;;79.53;2.40;;;23.20;25.30;;;;;;5050547;28;20180;-72
2023/06/04 08:27:08;;;;;;;80.30;2.57;;;23.30;24.10;;;;;;5051604;28;20182;-71
2023/06/04 08:29:35;;;;;;;79.17;2.17;;;23.80;24.40;;;;;;5051211;28;20169;-71
2023/06/04 08:32:01;;;;;;;79.87;2.37;;;23.70;22.90;;;;;;5050845;28;20483;-71
2023/06/04 08:34:26;;;;;;;79.37;2.27;;;23.40;24.30;;;;;;5053665;28;20403;-71
2023/06/04 08:36:52;;;;;;;79.37;2.20;;;22.40;24.60;;;;;;5055115;28;20755;-71
2023/06/04 08:39:18;;;;;;;93.13;2.80;;;22.60;26.00;;;;;;5054851;28;20180;-71
2023/06/04 08:41:50;;;;;;;78.90;2.30;;;23.00;25.20;;;;;;5054844;28;20697;-71
2023/06/04 08:44:17;;;;;;;79.37;2.60;;;23.70;23.70;;;;;;5054017;28;20197;-71
2023/06/04 08:46:43;;;;;;;78.80;2.03;;;23.80;23.30;;;;;;5054540;28;20468;-71
2023/06/04 08:49:12;;;;;;;78.73;2.20;;;24.00;24.70;;;;;;5054772;28;20777;-73
2023/06/04 08:51:38;;;;;;;78.70;2.20;;;24.40;23.90;;;;;;5053322;28;20452;-70
2023/06/04 08:54:08;;;;;;;78.40;2.07;;;24.40;22.30;;;;;;5054145;28;20405;-69
2023/06/04 08:56:35;;;;;;;78.47;2.10;;;23.10;23.40;;;;;;5054717;28;20422;-70
2023/06/04 08:59:03;;;;;;;78.37;2.20;;;22.70;25.30;;;;;;5054641;28;20463;-69
2023/06/04 09:01:30;;;;;;;78.57;2.40;;;23.40;25.20;;;;;;5054493;28;20404;-69
2023/06/04 09:03:58;;;;;;;78.40;2.40;;;24.10;23.70;;;;;;5054121;28;20417;-70
2023/06/04 09:06:27;;;;;;;78.70;2.50;;;24.70;23.30;;;;;;5054535;28;20433;-69
2023/06/04 09:08:56;;;;;;;78.10;2.20;;;24.30;22.70;;;;;;5054462;28;20405;-70
2023/06/04 09:11:23;;;;;;;78.40;2.50;;;24.30;23.00;;;;;;5054237;28;20457;-70
2023/06/04 09:13:50;;;;;;;77.90;2.20;;;24.80;23.10;;;;;;5053724;28;20444;-70
2023/06/04 09:16:15;;;;;;;77.47;1.90;;;25.10;23.30;;;;;;5054333;28;20414;-69
2023/06/04 09:18:41;;;;;;;78.40;2.50;;;23.80;21.00;;;;;;5054216;28;20417;-70
2023/06/04 09:21:08;;;;;;;78.83;2.80;;;25.00;21.30;;;;;;5054054;28;20539;-70
2023/06/04 09:23:43;;;;;;;78.37;2.80;;;24.20;22.90;;;;;;5053644;28;20410;-70
2023/06/04 09:26:09;;;;;;;77.33;2.07;;;25.00;23.80;;;;;;5054145;28;20603;-70
2023/06/04 09:28:36;;;;;;;77.17;2.10;;;24.90;21.80;;;;;;5054332;28;20414;-70
2023/06/04 09:31:02;;;;;;;79.50;2.23;;;25.30;21.90;;;;;;5054048;28;20406;-72
2023/06/04 09:33:28;;;;;;;78.00;2.60;;;25.30;21.00;;;;;;5052993;28;20496;-72
2023/06/04 09:35:58;;;;;;;77.67;2.40;;;25.30;23.30;;;;;;5053864;28;20795;-71
2023/06/04 09:38:32;;;;;;;77.50;2.47;;;25.50;20.80;;;;;;5052233;28;20410;-72
2023/06/04 09:41:00;;;;;;;76.80;2.20;;;25.60;20.80;;;;;;5031315;28;20978;-72
2023/06/04 09:43:26;;;;;;;78.10;3.10;;;25.90;21.90;;;;;;5030479;28;20917;-72
2023/06/04 09:45:52;;;;;;;76.47;1.87;;;26.10;21.10;;;;;;5013375;28;20478;-72
2023/06/04 09:48:21;;;;;;;76.87;2.30;;;26.60;20.80;;;;;;5013976;28;20169;-72
2023/06/04 09:50:47;;;;;;;77.00;2.43;;;26.60;19.20;;;;;;5013432;28;20413;-72
2023/06/04 09:53:22;;;;;;;78.40;2.90;;;26.10;20.70;;;;;;5012971;28;20443;-72
2023/06/04 09:56:01;;;;;;;76.83;2.47;;;26.40;20.30;;;;;;5013554;28;20435;-72
2023/06/04 09:58:27;;;;;;;76.57;2.13;;;26.90;19.80;;;;;;5013811;28;20402;-72
2023/06/04 10:00:55;;;;;;;76.70;2.30;;;26.70;19.10;;;;;;5024781;28;20918;-72
2023/06/04 10:03:25;;;;;;;77.03;2.60;;;26.70;19.80;;;;;;5026386;28;20876;-72
2023/06/04 10:05:53;;;;;;;75.77;2.17;;;27.00;19.20;;;;;;5031526;28;20446;-72
2023/06/04 10:08:21;;;;;;;77.10;2.80;;;27.00;19.00;;;;;;5024630;28;20962;-72
2023/06/04 10:10:48;;;;;;;75.57;2.20;;;27.10;17.70;;;;;;5032772;28;20415;-72
2023/06/04 10:13:18;;;;;;;75.80;2.20;;;27.30;19.20;;;;;;5032448;28;20442;-72
2023/06/04 10:15:45;;;;;;;76.60;2.43;;;27.50;17.20;;;;;;5013006;28;20478;-72
2023/06/04 10:18:13;;;;;;;75.57;2.27;;;27.80;17.30;;;;;;5013416;28;20510;-72
2023/06/04 10:20:40;;;;;;;75.80;2.37;;;27.20;17.20;;;;;;5029798;28;20430;-74
2023/06/04 10:23:07;;;;;;;75.17;2.20;;;27.40;19.50;;;;;;5033984;28;20433;-73
2023/06/04 10:25:35;;;;;;;75.27;2.30;;;27.50;17.20;;;;;;5041277;28;20442;-73
2023/06/04 10:28:04;;;;;;;75.00;2.57;;;27.40;17.00;;;;;;5037772;28;20419;-73
2023/06/04 10:30:30;;;;;;;74.40;1.87;;;27.50;17.70;;;;;;5038096;28;20410;-73
2023/06/04 10:32:57;;;;;;;74.67;2.20;;;27.90;17.70;;;;;;5037696;28;20459;-72
2023/06/04 10:35:36;;;;;;;74.37;2.00;;;27.90;16.40;;;;;;5038018;28;20922;-74
2023/06/04 10:38:09;;;;;;;74.20;1.90;;;28.00;16.60;;;;;;5039285;28;20427;-74
2023/06/04 10:40:36;;;;;;;74.43;2.10;;;27.90;17.40;;;;;;5038156;28;20484;-73
2023/06/04 10:43:10;;;;;;;74.30;2.00;;;28.10;17.00;;;;;;5038889;28;20979;-75
2023/06/04 10:45:36;;;;;;;74.47;2.03;;;27.80;16.40;;;;;;5049147;28;20452;-74
2023/06/04 10:48:03;;;;;;;74.10;1.97;;;28.20;17.20;;;;;;5058720;28;20425;-74
2023/06/04 10:50:29;;;;;;;74.47;2.20;;;27.50;16.00;;;;;;5040002;28;20453;-73
2023/06/04 10:52:57;;;;;;;74.00;2.23;;;27.10;16.30;;;;;;5030757;28;20843;-72
2023/06/04 10:55:23;;;;;;;74.10;2.00;;;25.90;17.40;;;;;;5031300;28;20222;-72
2023/06/04 10:58:00;;;;;;;73.80;2.17;;;26.60;18.40;;;;;;5039044;28;20455;-73
2023/06/04 11:00:37;;;;;;;75.47;2.27;;;27.50;16.50;;;;;;5029051;28;20428;-73
2023/06/04 11:03:07;;;;;;;74.13;2.40;;;28.00;14.40;;;;;;5030279;28;20827;-69
2023/06/04 11:05:53;;;;;;;74.17;2.40;;;26.80;16.80;;;;;;5029823;28;20545;-71
2023/06/04 11:08:30;;;;;;;73.60;2.30;;;26.00;17.40;;;;;;5042500;28;20772;-72
2023/06/04 11:10:56;;;;;;;73.23;2.20;;;26.70;17.60;;;;;;5039223;28;20414;-73
2023/06/04 11:13:28;;;;;;;73.80;2.17;;;27.40;17.10;;;;;;5039174;28;20788;-73
2023/06/04 11:15:53;;;;;;;73.53;2.20;;;28.10;16.60;;;;;;5035603;28;20192;-73
2023/06/04 11:18:21;;;;;;;74.00;2.80;;;28.50;15.50;;;;;;5032863;28;20421;-73
2023/06/04 11:20:48;;;;;;;73.67;2.50;;;28.20;14.90;;;;;;5035268;28;20180;-73
2023/06/04 11:23:15;;;;;;;72.63;1.90;;;27.00;16.00;;;;;;5035404;28;20414;-73
2023/06/04 11:25:43;;;;;;;82.23;2.20;;;27.30;17.30;;;;;;5029681;28;20514;-73
2023/06/04 11:28:21;;;;;;;72.80;2.10;;;28.40;16.00;;;;;;5036310;28;20430;-73
2023/06/04 11:31:05;;;;;;;72.80;2.00;;;29.50;13.80;;;;;;5033502;28;20410;-73
2023/06/04 11:33:46;;;;;;;72.70;2.23;;;29.60;14.40;;;;;;5049694;28;20421;-74
2023/06/04 11:36:28;;;;;;;72.70;2.00;;;30.30;14.70;;;;;;5036693;28;20450;-73
2023/06/04 11:38:55;;;;;;;73.10;2.20;;;31.60;12.70;;;;;;5036764;28;20648;-74
2023/06/04 11:41:21;;;;;;;73.00;1.80;;;32.10;11.60;;;;;;5033848;28;20800;-74
2023/06/04 11:43:49;;;;;;;72.80;1.90;;;31.30;11.90;;;;;;5036391;28;20416;-74
2023/06/04 11:46:15;;;;;;;72.77;2.10;;;31.10;11.60;;;;;;5028967;28;20215;-73
2023/06/04 11:48:41;;;;;;;73.20;2.43;;;30.90;12.00;;;;;;5024714;28;20420;-73
2023/06/04 11:51:08;;;;;;;72.87;2.17;;;29.10;13.00;;;;;;5032740;28;20177;-73
2023/06/04 11:53:36;;;;;;;72.70;2.10;;;28.60;13.90;;;;;;5033465;28;20206;-73
2023/06/04 11:56:03;;;;;;;73.17;2.50;;;30.00;12.60;;;;;;5033794;28;20537;-72
2023/06/04 11:58:29;;;;;;;72.30;1.90;;;30.80;11.90;;;;;;5027988;28;20541;-72
2023/06/04 12:00:57;;;;;;;72.10;1.83;;;33.00;11.30;;;;;;5011606;28;20412;-72
2023/06/04 12:03:40;;;;;;;71.77;2.00;;;33.70;9.60;;;;;;5024710;28;20452;-72
2023/06/04 12:06:19;;;;;;;70.90;2.10;;;32.00;8.70;;;;;;5051457;28;20776;-72
2023/06/04 12:08:47;;;;;;;71.13;2.20;;;31.80;11.50;;;;;;5054912;28;20409;-72
2023/06/04 12:11:31;;;;;;;71.47;2.33;;;33.50;8.70;;;;;;5053464;28;20414;-73
2023/06/04 12:13:57;;;;;;;69.73;1.80;;;33.20;9.30;;;;;;5054396;28;20757;-72
2023/06/04 12:16:23;;;;;;;70.07;2.10;;;32.20;9.60;;;;;;5055213;28;20842;-72
2023/06/04 12:18:50;;;;;;;70.07;1.97;;;32.30;11.90;;;;;;5055111;28;20497;-72
2023/06/04 12:21:26;;;;;;;70.30;2.10;;;32.30;9.60;;;;;;5054958;28;20463;-72
2023/06/04 12:24:12;;;;;;;71.07;2.43;;;33.70;9.30;;;;;;5054609;28;20386;-73
2023/06/04 12:26:43;;;;;;;69.47;2.10;;;34.20;8.30;;;;;;5053868;28;20434;-72
2023/06/04 12:29:17;;;;;;;69.27;1.80;;;35.10;6.90;;;;;;5064863;28;20485;-73
2023/06/04 12:31:45;;;;;;;68.87;1.90;;;36.00;6.60;;;;;;5061033;28;20830;-74
2023/06/04 12:34:13;;;;;;;70.27;2.23;;;37.00;5.30;;;;;;5061156;28;20402;-74
2023/06/04 12:36:38;;;;;;;68.30;1.80;;;33.60;7.50;;;;;;5063955;28;20433;-74
2023/06/04 12:39:05;;;;;;;67.77;1.70;;;33.80;6.90;;;;;;5065521;28;20402;-74